Time;durP1;ratioP1;P1;durP2;ratioP2;P2;SDS_P1;SDS_P2;PMS_P1;PMS_P2;Temp;Humidity;BMP_temperature;BMP_pressure;BME280_temperature;BME280_humidity;BME280_pressure;Samples;Min_cycle;Max_cycle;Signal;HPM_P1;HPM_P2
2024/01/30 00:01:02;;;;;;;9.37;5.40;;;;;;;-143.21;61.31;75319.91;4910080;29;20319;-89
2024/01/30 00:03:45;;;;;;;7.10;5.00;;;;;;;-143.21;61.68;75331.81;4911940;29;20266;-90
2024/01/30 00:06:15;;;;;;;9.53;5.17;;;;;;;-143.21;61.71;75349.69;4893379;29;20245;-90
2024/01/30 00:09:31;;;;;;;9.07;5.20;;;;;;;-143.21;61.33;75335.78;4921955;23;20563;-90
2024/01/30 00:14:55;;;;;;;8.00;4.93;;;;;;;-143.21;61.35;75333.81;5070598;23;20237;-89
2024/01/30 00:17:37;;;;;;;;;;;;;;;;;;;;;
2024/01/30 00:25:27;;;;;;;7.80;5.30;;;;;;;-143.21;61.26;75343.72;4915913;23;20707;-91
2024/01/30 00:28:11;;;;;;;10.50;6.00;;;;;;;-143.21;61.70;75363.56;4919836;29;20205;-90
2024/01/30 00:30:51;;;;;;;9.23;5.60;;;;;;;-143.21;62.13;75367.53;4931516;23;20232;-90
2024/01/30 00:33:43;;;;;;;7.77;5.27;;;;;;;-143.21;62.12;75357.63;5042713;23;20240;31
2024/01/30 00:42:43;;;;;;;7.73;5.00;;;;;;;-143.21;62.26;75345.72;4981890;23;20241;-90
2024/01/30 00:45:31;;;;;;;7.83;5.10;;;;;;;-143.21;61.91;75339.75;4915632;23;20241;-90
2024/01/30 00:48:18;;;;;;;9.07;5.03;;;;;;;-143.21;61.44;75331.81;4917893;23;20755;-91
2024/01/30 00:50:50;;;;;;;8.57;5.07;;;;;;;-143.21;61.30;75329.84;4888671;29;20215;-90
2024/01/30 00:56:03;;;;;;;7.90;5.30;;;;;;;-143.21;61.36;75321.88;512464;27;20474;-90
2024/01/30 00:58:31;;;;;;;9.17;5.23;;;;;;;-143.21;61.07;75333.81;4913925;23;20336;-90
2024/01/30 01:00:58;;;;;;;10.40;5.30;;;;;;;-143.21;61.57;75341.75;4912853;29;20225;-90
2024/01/30 01:03:25;;;;;;;8.07;4.93;;;;;;;-143.21;61.49;75347.69;4919154;29;20194;-89
2024/01/30 01:05:52;;;;;;;7.60;4.90;;;;;;;-143.21;61.28;75341.75;4924036;29;20216;-91
2024/01/30 01:08:22;;;;;;;7.13;4.77;;;;;;;-143.21;60.99;75331.81;4915587;29;20222;-92
2024/01/30 01:14:02;;;;;;;9.17;5.20;;;;;;;-143.21;61.31;75329.84;5011703;23;20227;-92
2024/01/30 01:19:09;;;;;;;8.50;5.60;;;;;;;-143.21;61.22;75339.75;5066496;23;20335;-91
2024/01/30 01:21:54;;;;;;;8.03;5.10;;;;;;;-143.21;60.95;75335.78;4932140;29;20317;-89
2024/01/30 01:24:27;;;;;;;9.20;5.60;;;;;;;-143.21;60.94;75343.72;4878322;29;20230;-91
2024/01/30 01:27:17;;;;;;;10.40;5.30;;;;;;;-143.21;61.23;75371.50;4972503;23;20234;-91
2024/01/30 01:32:50;;;;;;;10.07;5.50;;;;;;;-143.21;61.87;75383.44;4909156;29;20217;-90
2024/01/30 01:41:57;;;;;;;10.13;4.90;;;;;;;-143.21;61.88;75395.34;4976839;23;20236;-91
2024/01/30 01:45:01;;;;;;;9.33;4.90;;;;;;;-143.21;62.33;75409.22;4921417;29;20702;-90
2024/01/30 01:50:24;;;;;;;7.90;4.80;;;;;;;-143.21;62.06;75401.28;4891046;29;20648;-90
2024/01/30 01:52:53;;;;;;;8.63;5.30;;;;;;;-143.21;62.52;75413.19;5034208;23;20240;-90
2024/01/30 01:55:25;;;;;;;8.17;5.50;;;;;;;-143.21;62.50;75433.03;4929779;29;20566;-91
2024/01/30 01:57:54;;;;;;;9.03;5.77;;;;;;;-143.21;62.74;75415.19;4921423;29;20243;-91
2024/01/30 02:00:32;;;;;;;8.27;5.40;;;;;;;-143.21;62.90;75425.09;4914766;29;20224;-91
2024/01/30 02:03:00;;;;;;;7.53;5.43;;;;;;;-143.21;62.67;75423.13;4950742;23;20204;-90
2024/01/30 02:05:27;;;;;;;6.90;5.00;;;;;;;-143.21;62.57;75423.13;5037559;23;20200;-90
2024/01/30 02:08:45;;;;;;;7.80;5.07;;;;;;;-143.21;62.94;75425.09;4942224;23;20232;-88
2024/01/30 02:11:16;;;;;;;8.27;5.20;;;;;;;-143.21;62.54;75431.06;4926978;23;20230;-89
2024/01/30 02:13:46;;;;;;;7.50;4.80;;;;;;;-143.21;62.22;75437.03;5023272;23;20237;-91
2024/01/30 02:16:22;;;;;;;10.07;4.90;;;;;;;-143.21;62.02;75427.09;4975830;23;20225;-88
2024/01/30 02:19:01;;;;;;;9.67;4.83;;;;;;;-143.21;62.62;75435.03;4937099;23;20780;-90
2024/01/30 02:21:30;;;;;;;7.27;5.00;;;;;;;-143.21;62.52;75431.06;4897230;29;20218;-91
2024/01/30 02:23:59;;;;;;;6.40;4.67;;;;;;;-143.21;62.04;75411.22;4897413;29;20729;-91
2024/01/30 02:26:30;;;;;;;7.27;4.50;;;;;;;-143.21;61.81;75419.16;4909045;29;20226;-90
2024/01/30 02:34:09;;;;;;;7.70;4.90;;;;;;;-143.21;61.73;75401.28;4926919;23;20303;-90
2024/01/30 02:39:20;;;;;;;6.90;4.70;;;;;;;-143.21;61.46;75399.31;4884444;29;20213;-90
2024/01/30 02:41:47;;;;;;;7.40;4.87;;;;;;;-143.21;61.31;75399.31;4922699;29;20709;-89
2024/01/30 02:44:14;;;;;;;6.87;4.50;;;;;;;-143.21;61.52;75407.25;4915453;29;20206;-89
2024/01/30 02:46:41;;;;;;;7.03;4.53;;;;;;;-143.21;61.65;75409.22;4931307;29;20651;-90
2024/01/30 02:52:15;;;;;;;6.63;4.47;;;;;;;-143.21;61.54;75395.34;4899096;29;20229;-90
2024/01/30 02:57:36;;;;;;;;;;;;;;;;;;;;;
2024/01/30 03:00:28;;;;;;;7.70;4.60;;;;;;;-143.21;61.46;75397.31;5010596;23;20247;-88
2024/01/30 03:02:55;;;;;;;9.77;4.57;;;;;;;-143.21;61.25;75399.31;4862656;29;20201;-89
2024/01/30 03:05:50;;;;;;;6.73;4.50;;;;;;;-143.21;61.04;75375.47;4862612;29;20220;-89
2024/01/30 03:08:18;;;;;;;7.30;4.40;;;;;;;-143.21;61.14;75385.41;4862890;29;20205;-90
2024/01/30 03:10:45;;;;;;;8.07;4.97;;;;;;;-143.21;60.97;75381.44;4860989;29;20207;-89
2024/01/30 03:16:25;;;;;;;6.83;4.60;;;;;;;-143.21;61.19;75385.41;4869344;23;20213;-89
2024/01/30 03:18:55;;;;;;;6.40;4.37;;;;;;;-143.21;61.02;75377.47;4921796;23;20245;-90
2024/01/30 03:24:07;;;;;;;6.57;4.50;;;;;;;-143.21;61.13;75387.41;4921404;23;20247;-91
2024/01/30 03:26:34;;;;;;;6.43;4.73;;;;;;;-143.21;61.06;75375.47;4924317;29;20239;-89
2024/01/30 03:34:52;;;;;;;7.57;4.60;;;;;;;-143.21;60.21;75371.50;4923904;29;20276;-90
2024/01/30 03:40:48;;;;;;;7.43;4.83;;;;;;;-143.21;59.89;75357.63;4898376;29;20195;-90
2024/01/30 03:43:27;;;;;;;6.50;4.07;;;;;;;-143.21;59.49;75363.56;4952493;23;20235;-91
2024/01/30 03:45:57;;;;;;;7.67;4.67;;;;;;;-143.21;59.45;75349.69;4920263;29;20197;-93
2024/01/30 03:48:25;;;;;;;7.63;4.43;;;;;;;-143.21;59.65;75349.69;4923572;29;20217;-90
2024/01/30 03:56:44;;;;;;;6.63;4.40;;;;;;;-143.21;59.33;75367.53;4895814;29;20237;-90
2024/01/30 03:59:31;;;;;;;6.73;4.27;;;;;;;-143.21;59.03;75369.53;4880061;29;20234;-89
2024/01/30 04:07:21;;;;;;;8.20;4.40;;;;;;;-143.21;58.89;75353.66;4925895;23;20233;-89
2024/01/30 04:12:51;;;;;;;8.80;5.00;;;;;;;-143.21;58.91;75363.56;4912336;29;20218;-89
2024/01/30 04:15:44;;;;;;;7.57;4.10;;;;;;;-143.21;58.87;75377.47;4915434;29;20209;-89
2024/01/30 04:24:21;;;;;;;8.23;4.47;;;;;;;-143.21;58.87;75359.59;4844791;29;20219;-90
2024/01/30 04:29:33;;;;;;;6.87;4.00;;;;;;;-143.21;58.62;75345.72;4908233;29;21029;-89
2024/01/30 04:32:01;;;;;;;5.83;4.03;;;;;;;-143.21;58.57;75349.69;4925300;29;20224;-90
2024/01/30 04:34:34;;;;;;;6.97;4.00;;;;;;;-143.21;58.44;75357.63;4918726;29;20615;-89
2024/01/30 04:37:04;;;;;;;5.73;3.97;;;;;;;-143.21;58.76;75355.63;4925386;29;20225;-89
2024/01/30 04:39:42;;;;;;;6.43;4.07;;;;;;;-143.21;58.43;75341.75;5136446;23;20248;-90
2024/01/30 04:42:09;;;;;;;7.67;4.07;;;;;;;-143.21;58.25;75339.75;4932830;23;20234;-91
2024/01/30 04:56:18;;;;;;;8.30;4.40;;;;;;;-143.21;59.03;75377.47;4901496;23;20881;-90
2024/01/30 04:59:03;;;;;;;6.03;4.20;;;;;;;-143.21;59.07;75381.44;4932100;29;20259;-88
2024/01/30 05:04:22;;;;;;;;;;;;;;;;;;;;;
2024/01/30 05:07:13;;;;;;;6.67;4.10;;;;;;;-143.21;59.52;75415.19;4927024;23;20238;-90
2024/01/30 05:09:47;;;;;;;6.50;4.13;;;;;;;-143.21;60.04;75425.09;4939380;23;20287;-90
2024/01/30 05:12:31;;;;;;;8.03;4.90;;;;;;;-143.21;60.26;75444.97;4929793;23;20235;-91
2024/01/30 05:14:58;;;;;;;7.53;4.83;;;;;;;-143.21;60.45;75439.00;4930323;23;20223;-89
2024/01/30 05:23:43;;;;;;;13.60;5.57;;;;;;;-143.21;60.30;75437.03;4937525;23;20253;-91
2024/01/30 05:26:27;;;;;;;;;;;;;;;;;;;;;
2024/01/30 05:32:39;;;;;;;8.57;5.33;;;;;;;-143.21;60.89;75437.03;4911975;23;20248;-91
2024/01/30 05:41:40;;;;;;;13.53;5.50;;;;;;;-143.21;60.67;75441.00;4859595;23;20236;-90
2024/01/30 05:44:39;;;;;;;11.57;6.63;;;;;;;-143.21;60.60;75444.97;4876150;23;20269;-91
2024/01/30 05:47:32;;;;;;;9.07;5.60;;;;;;;-143.21;60.21;75444.97;4909419;23;20615;-91
2024/01/30 06:09:55;;;;;;;9.87;4.97;;;;;;;-143.21;60.80;75504.50;4918759;23;20773;-89
2024/01/30 06:12:34;;;;;;;8.17;4.83;;;;;;;-143.21;60.13;75490.63;4921146;29;20194;-88
2024/01/30 06:18:31;;;;;;;;;;;;;;;;;;;;;
2024/01/30 06:21:11;;;;;;;15.63;5.50;;;;;;;-143.21;60.10;75498.56;4914544;29;20213;-91
2024/01/30 06:23:38;;;;;;;14.03;4.47;;;;;;;-143.21;59.27;75474.72;4926810;23;20314;-90
2024/01/30 06:26:30;;;;;;;13.43;6.07;;;;;;;-143.21;59.13;75484.66;4924000;23;20419;-90
2024/01/30 06:31:41;;;;;;;8.83;5.23;;;;;;;-143.21;59.34;75484.66;4900506;29;20246;-90
2024/01/30 06:39:15;;;;;;;10.93;5.18;;;;;;;-143.21;58.97;75448.94;4929586;23;20249;-91
2024/01/30 06:41:42;;;;;;;10.27;4.70;;;;;;;-143.21;58.56;75437.03;4935095;23;20245;-91
2024/01/30 06:47:05;;;;;;;6.80;4.43;;;;;;;-143.21;58.25;75419.16;4915396;23;20277;-89
2024/01/30 06:50:13;;;;;;;46.57;14.50;;;;;;;-143.21;64.90;75409.22;4907182;29;20268;-91
2024/01/30 06:55:40;;;;;;;10.50;5.50;;;;;;;-143.21;59.77;75387.41;4935222;23;20248;-90
2024/01/30 07:04:39;;;;;;;10.03;5.43;;;;;;;-143.21;57.20;75381.44;4921610;23;20728;-89
2024/01/30 07:10:21;;;;;;;10.97;5.70;;;;;;;-143.21;56.77;75363.56;4909814;23;20245;-91
2024/01/30 07:12:56;;;;;;;13.27;4.93;;;;;;;-143.21;56.63;75349.69;4916906;29;20614;-91
2024/01/30 07:15:23;;;;;;;8.97;5.23;;;;;;;-143.21;56.24;75347.69;4923071;29;20209;-90
2024/01/30 07:17:49;;;;;;;12.27;4.90;;;;;;;-143.21;56.32;75335.78;4952102;23;20247;-89
2024/01/30 07:20:17;;;;;;;15.33;5.03;;;;;;;-143.21;56.60;75327.84;4925440;29;20232;-89
2024/01/30 07:22:54;;;;;;;10.47;5.10;;;;;;;-143.21;55.25;75325.88;4917848;29;20211;-90
2024/01/30 07:25:31;;;;;;;;;;;;;;;;;;;;;
2024/01/30 07:28:10;;;;;;;8.67;4.90;;;;;;;-143.21;55.85;75327.84;4920145;29;20220;-89
2024/01/30 07:30:43;;;;;;;11.83;4.60;;;;;;;-143.21;55.05;75311.97;4976451;23;20299;-89
2024/01/30 07:35:50;;;;;;;13.63;5.27;;;;;;;-143.21;55.37;75306.00;4876499;29;20624;-92
2024/01/30 07:38:17;;;;;;;7.10;4.37;;;;;;;-143.21;55.20;75308.00;4929671;29;20198;-91
2024/01/30 07:40:44;;;;;;;6.60;4.30;;;;;;;-143.21;53.93;75298.06;4934998;23;20212;-90
2024/01/30 07:43:52;;;;;;;10.70;5.07;;;;;;;-143.21;54.58;75298.06;4914465;29;20246;-91
2024/01/30 07:46:27;;;;;;;11.60;4.77;;;;;;;-143.21;54.01;75302.03;4918385;29;20285;-89
2024/01/30 07:49:02;;;;;;;7.67;4.30;;;;;;;-143.21;53.79;75294.09;4922060;29;20242;-91
2024/01/30 07:51:32;;;;;;;8.50;4.17;;;;;;;-143.21;53.70;75311.97;4921238;29;20220;-88
2024/01/30 07:56:53;;;;;;;8.83;4.10;;;;;;;-143.21;53.56;75315.94;4906651;29;20215;-90
2024/01/30 07:59:31;;;;;;;13.47;4.40;;;;;;;-143.21;54.00;75321.88;4901963;29;20314;-90
2024/01/30 08:01:59;;;;;;;10.00;4.63;;;;;;;-143.21;54.56;75313.94;4910709;23;20254;-91
2024/01/30 08:04:31;;;;;;;8.77;5.00;;;;;;;-143.21;54.25;75319.91;4923353;23;20479;-90
2024/01/30 08:07:17;;;;;;;;;;;;;;;;;;;;;
2024/01/30 08:09:47;;;;;;;10.70;5.03;;;;;;;-143.21;54.30;75300.06;4914579;29;20216;-91
2024/01/30 08:12:26;;;;;;;15.53;5.27;;;;;;;-143.21;54.52;75306.00;4926248;23;20238;-90
2024/01/30 08:15:13;;;;;;;8.93;4.80;;;;;;;-143.21;54.51;75319.91;4939319;23;20240;-90
2024/01/30 08:26:36;;;;;;;10.70;5.00;;;;;;;-143.21;54.39;75315.94;4812076;29;20219;-90
2024/01/30 08:29:29;;;;;;;8.13;4.90;;;;;;;-143.21;54.31;75304.03;4886544;23;20665;-90
2024/01/30 08:32:21;;;;;;;7.90;4.73;;;;;;;-143.21;54.23;75304.03;4918259;23;20265;-89
2024/01/30 08:34:48;;;;;;;6.53;4.70;;;;;;;-143.21;53.88;75306.00;4905845;29;20207;-89
2024/01/30 08:37:27;;;;;;;7.77;4.77;;;;;;;-143.21;53.72;75284.19;4908453;29;20206;-90
2024/01/30 08:40:04;;;;;;;7.57;4.93;;;;;;;-143.21;53.57;75260.34;4918074;29;20211;-90
2024/01/30 08:42:31;;;;;;;8.27;5.27;;;;;;;-143.21;53.29;75266.31;4906543;29;20293;-88
2024/01/30 08:45:10;;;;;;;8.77;5.07;;;;;;;-143.21;53.62;75252.41;4910747;29;20230;-92
2024/01/30 08:50:16;;;;;;;11.80;5.17;;;;;;;-143.21;55.77;75238.53;4929871;23;20273;-88
2024/01/30 08:52:44;;;;;;;8.40;5.10;;;;;;;-143.21;57.11;75218.69;4932718;23;20199;-88
2024/01/30 08:55:18;;;;;;;11.53;5.30;;;;;;;-143.21;56.77;75208.75;4915567;29;20297;-87
2024/01/30 08:57:45;;;;;;;9.10;5.30;;;;;;;-143.21;55.85;75192.88;4918857;29;20736;-89
2024/01/30 09:00:20;;;;;;;9.27;5.97;;;;;;;-143.21;54.80;75186.91;4917146;29;20663;-86
2024/01/30 09:02:47;;;;;;;8.63;5.43;;;;;;;-143.21;54.58;75177.00;4914712;29;20217;-87
2024/01/30 09:05:15;;;;;;;13.03;5.50;;;;;;;-143.21;54.75;75159.13;4922916;29;20203;-87
2024/01/30 09:07:44;;;;;;;15.43;5.60;;;;;;;-143.21;54.64;75155.16;4913705;29;20265;-88
2024/01/30 09:10:11;;;;;;;6.90;4.50;;;;;;;-143.21;56.26;75133.34;4929238;29;20198;-87
2024/01/30 09:12:38;;;;;;;8.63;4.93;;;;;;;-143.21;54.83;75135.31;4925917;29;20202;-88
2024/01/30 09:15:05;;;;;;;8.30;4.73;;;;;;;-143.21;57.25;75127.38;4925390;29;20221;-88
2024/01/30 09:17:38;;;;;;;7.33;4.77;;;;;;;-143.21;55.58;75115.47;4932270;29;20210;-89
2024/01/30 09:20:13;;;;;;;9.30;4.73;;;;;;;-143.21;56.11;75109.50;4926987;29;20336;-88
2024/01/30 09:22:41;;;;;;;6.13;4.47;;;;;;;-143.21;55.10;75131.34;4932396;23;20234;-89
2024/01/30 09:25:28;;;;;;;6.43;4.37;;;;;;;-143.21;54.09;75149.22;4957184;23;20230;-91
2024/01/30 09:28:02;;;;;;;9.53;4.80;;;;;;;-143.21;54.01;75153.19;5137852;23;20238;-89
2024/01/30 09:30:41;;;;;;;10.13;5.30;;;;;;;-143.21;54.34;75161.13;4924838;23;20243;-91
2024/01/30 09:38:55;;;;;;;7.40;4.40;;;;;;;-143.21;53.43;75149.22;4926570;23;20245;-91
2024/01/30 09:41:48;;;;;;;12.73;5.43;;;;;;;-143.21;53.57;75161.13;4924555;29;20202;-89
2024/01/30 09:44:21;;;;;;;7.17;4.63;;;;;;;-143.21;53.91;75173.03;4926384;23;20246;-90
2024/01/30 09:47:08;;;;;;;7.60;4.53;;;;;;;-143.21;54.06;75161.13;4918748;29;20665;-91
2024/01/30 09:49:36;;;;;;;8.57;3.93;;;;;;;-143.21;52.86;75077.75;4926580;29;20730;-90
2024/01/30 09:52:03;;;;;;;7.07;4.40;;;;;;;-143.21;50.65;74948.75;4926479;29;20297;-91
2024/01/30 09:54:39;;;;;;;7.37;4.00;;;;;;;-143.21;48.10;74801.88;4934747;23;20240;-88
2024/01/30 09:57:16;;;;;;;6.43;4.07;;;;;;;-143.21;46.42;74670.91;4950646;29;20197;-90
2024/01/30 10:00:01;;;;;;;5.97;3.90;;;;;;;-143.21;43.83;74543.91;4924369;29;20318;-89
2024/01/30 10:02:51;;;;;;;;;;;;;;;;;;;;;
2024/01/30 10:05:33;;;;;;;5.90;3.97;;;;;;;-143.21;40.20;74327.59;4898548;23;20235;-91
2024/01/30 10:08:11;;;;;;;4.43;3.27;;;;;;;-143.21;38.39;74291.88;4908282;29;20207;-89
2024/01/30 10:10:59;;;;;;;5.00;3.93;;;;;;;-143.21;38.47;74214.50;4857086;29;20203;-89
2024/01/30 10:13:43;;;;;;;4.87;3.67;;;;;;;-143.21;36.98;74151.00;4908185;23;20232;-90
2024/01/30 10:16:10;;;;;;;7.37;4.20;;;;;;;-143.21;36.86;74113.31;4929196;23;20222;-90
2024/01/30 10:21:24;;;;;;;5.33;3.60;;;;;;;-143.21;35.23;74178.78;4901946;29;20602;-90
2024/01/30 10:23:51;;;;;;;6.70;4.20;;;;;;;-143.21;36.66;74266.09;4923909;23;20207;-89
2024/01/30 10:26:18;;;;;;;5.10;3.60;;;;;;;-143.21;37.33;74331.56;4928561;23;20226;-90
2024/01/30 10:29:05;;;;;;;4.70;3.77;;;;;;;-143.21;38.33;74397.06;4928627;29;20269;-90
2024/01/30 10:34:13;;;;;;;5.07;3.40;;;;;;;-143.21;38.29;74399.03;4863382;29;20200;-87
2024/01/30 10:36:51;;;;;;;5.03;3.20;;;;;;;-143.21;37.28;74319.66;4928675;23;20226;-90
2024/01/30 10:39:19;;;;;;;4.50;3.60;;;;;;;-143.21;36.88;74375.22;4917160;29;20214;-90
2024/01/30 10:41:48;;;;;;;5.07;3.60;;;;;;;-143.21;37.87;74478.41;4911716;29;20203;-90
2024/01/30 10:44:26;;;;;;;4.37;3.30;;;;;;;-143.21;39.23;74502.22;4915136;29;20205;-90
2024/01/30 10:47:11;;;;;;;4.60;3.47;;;;;;;-143.21;39.58;74526.03;4924813;29;20237;-90
2024/01/30 10:49:39;;;;;;;10.73;4.17;;;;;;;-143.21;39.61;74535.97;4924860;29;20306;-89
2024/01/30 11:02:43;;;;;;;4.80;3.13;;;;;;;-143.21;35.41;74137.13;4917239;23;20242;-89
2024/01/30 11:05:41;;;;;;;3.30;2.93;;;;;;;-143.21;34.59;74039.88;4922400;23;20699;-91
2024/01/30 11:08:40;;;;;;;4.37;3.30;;;;;;;-143.21;33.43;73952.59;4924289;23;20243;-89
2024/01/30 11:22:44;;;;;;;9.90;3.50;;;;;;;-143.21;31.30;73831.56;4911136;23;20297;-88
2024/01/30 11:25:15;;;;;;;4.80;3.23;;;;;;;-143.21;31.20;73869.25;4906192;23;20213;-90
2024/01/30 11:27:46;;;;;;;5.00;3.47;;;;;;;-143.21;30.96;73803.78;4917890;29;20240;-89
2024/01/30 11:30:31;;;;;;;5.10;3.53;;;;;;;-143.21;30.33;73734.34;4880979;29;20235;-90
2024/01/30 11:33:12;;;;;;;4.43;3.60;;;;;;;-143.21;29.45;73706.56;4878834;29;20671;-89
2024/01/30 11:38:40;;;;;;;7.13;3.30;;;;;;;-143.21;31.44;74014.09;4949029;23;20236;-91
2024/01/30 11:41:18;;;;;;;5.30;3.80;;;;;;;-143.21;32.86;74121.25;4916497;29;20293;-91
2024/01/30 11:50:38;;;;;;;4.33;3.60;;;;;;;-143.21;35.00;74313.72;4922983;23;20238;-92
2024/01/30 11:56:38;;;;;;;4.60;3.80;;;;;;;-143.21;36.15;74337.53;4911025;23;1221497;-92
2024/01/30 11:59:38;;;;;;;7.07;3.90;;;;;;;-143.21;34.32;74216.47;4913673;23;20226;-92
2024/01/30 12:05:42;;;;;;;4.57;3.73;;;;;;;-143.21;34.66;74268.06;4929401;23;20242;-91
2024/01/30 12:11:55;;;;;;;5.23;3.87;;;;;;;-143.21;33.25;74085.53;4888928;23;20658;-91
2024/01/30 12:26:08;;;;;;;5.87;4.00;;;;;;;-143.21;28.71;73643.09;4864966;23;20718;-92
2024/01/30 12:28:51;;;;;;;5.07;3.60;;;;;;;-143.21;29.00;73617.28;4910650;23;20227;-90
2024/01/30 12:34:27;;;;;;;4.83;3.60;;;;;;;-143.21;28.78;73635.16;4913772;23;20768;-90
2024/01/30 12:36:54;;;;;;;6.80;3.90;;;;;;;-143.21;28.82;73629.19;4926662;23;20242;-89
2024/01/30 12:39:21;;;;;;;5.87;4.47;;;;;;;-143.21;28.73;73621.25;4920324;29;20238;-90
2024/01/30 12:41:48;;;;;;;11.00;7.93;;;;;;;-143.21;39.44;73565.72;4905569;29;20608;-87
2024/01/30 12:47:17;;;;;;;4.83;3.67;;;;;;;-143.21;28.06;73516.13;4959506;23;20242;-89
2024/01/30 12:52:09;;;;;;;5.47;3.97;;;;;;;-143.21;28.09;73575.63;4920341;23;20302;-90
2024/01/30 12:54:39;;;;;;;5.47;4.00;;;;;;;-143.21;27.83;73569.69;4909689;29;20491;-93
2024/01/30 12:59:53;;;;;;;7.97;5.40;;;;;;;-143.21;27.68;73512.16;4919262;23;20242;-90
2024/01/30 13:02:34;;;;;;;5.17;4.23;;;;;;;-143.21;27.43;73492.31;4915098;29;20664;-90
2024/01/30 13:05:12;;;;;;;;;;;;;;;;;;;;;
2024/01/30 13:07:40;;;;;;;5.33;4.10;;;;;;;-143.21;27.87;73520.09;4908947;29;20618;-90
2024/01/30 13:10:07;;;;;;;7.50;4.77;;;;;;;-143.21;27.63;73482.38;4914661;29;20333;-91
2024/01/30 13:12:36;;;;;;;6.30;4.63;;;;;;;-143.21;27.40;73430.81;4905259;29;20206;-91
2024/01/30 13:15:05;;;;;;;6.57;4.50;;;;;;;-143.21;27.44;73438.75;4920437;29;20203;-91
2024/01/30 13:17:39;;;;;;;9.77;4.70;;;;;;;-143.21;27.11;73407.00;4920324;29;20641;-93
2024/01/30 13:20:08;;;;;;;11.30;4.57;;;;;;;-143.21;27.04;73438.75;4929251;29;20233;-91
2024/01/30 13:22:45;;;;;;;6.27;4.53;;;;;;;-143.21;27.24;73464.53;4928575;29;20206;-89
2024/01/30 13:25:58;;;;;;;7.73;5.10;;;;;;;-143.21;27.13;73516.13;4921685;29;20265;-91
2024/01/30 13:28:34;;;;;;;7.50;4.20;;;;;;;-143.21;27.45;73474.47;4876514;29;20199;-90
2024/01/30 13:31:10;;;;;;;7.93;4.83;;;;;;;-143.21;27.08;73446.69;4923166;29;20210;-89
2024/01/30 13:33:48;;;;;;;6.70;4.40;;;;;;;-143.21;27.04;73442.72;4931424;23;20654;-90
2024/01/30 13:36:26;;;;;;;;;;;;;;;;;;;;;
2024/01/30 13:38:57;;;;;;;7.47;4.03;;;;;;;-143.21;26.78;73399.06;4926353;29;20289;-91
2024/01/30 13:41:25;;;;;;;7.20;4.67;;;;;;;-143.21;26.52;73361.38;4935148;29;20245;-90
2024/01/30 13:44:03;;;;;;;;;;;;;;;;;;;;;
2024/01/30 13:59:09;;;;;;;9.30;5.35;;;;;;;-143.21;27.44;73533.97;4903087;23;20219;-90
2024/01/30 14:01:40;;;;;;;8.02;4.90;;;;;;;-143.21;27.68;73585.56;4934189;23;20406;-91
2024/01/30 14:07:43;;;;;;;8.63;5.70;;;;;;;-143.21;29.73;73857.34;4868938;23;20234;-88
2024/01/30 14:15:40;;;;;;;9.40;5.60;;;;;;;-143.21;32.61;74135.13;4942372;23;20232;-90
2024/01/30 14:21:52;;;;;;;10.37;4.63;;;;;;;-143.21;34.74;74305.78;4939519;23;20288;-93
2024/01/30 14:24:44;;;;;;;10.03;5.00;;;;;;;-143.21;35.37;74359.34;4922977;29;20233;-93
2024/01/30 14:27:45;;;;;;;9.43;5.33;;;;;;;-143.21;35.82;74401.03;4885548;29;20247;-94
2024/01/30 14:30:13;;;;;;;8.77;5.33;;;;;;;-143.21;37.39;74456.59;4815576;29;20212;-89
2024/01/30 14:35:08;;;;;;;7.90;5.15;;;;;;;-143.21;39.33;74549.84;4912043;23;20270;-91
2024/01/30 14:37:35;;;;;;;9.43;5.50;;;;;;;-143.21;39.57;74585.56;4918264;29;20258;-88
2024/01/30 14:40:02;;;;;;;9.73;5.17;;;;;;;-143.21;39.87;74589.53;4917329;29;20213;-88
2024/01/30 14:42:37;;;;;;;8.20;5.83;;;;;;;-143.21;39.94;74631.22;4909545;29;20234;-89
2024/01/30 14:45:29;;;;;;;8.97;5.40;;;;;;;-143.21;40.52;74664.97;4918709;29;20250;-93
2024/01/30 15:07:45;;;;;;;12.27;6.50;;;;;;;-143.21;45.78;74869.38;4942567;23;20278;-90
2024/01/30 15:10:12;;;;;;;11.50;6.13;;;;;;;-143.21;45.65;74877.31;4936750;23;20238;-90
2024/01/30 15:12:54;;;;;;;9.93;6.10;;;;;;;-143.21;45.64;74918.97;4928847;29;20201;-90
2024/01/30 15:15:21;;;;;;;10.63;5.80;;;;;;;-143.21;45.86;74901.13;4932352;23;20231;-90
2024/01/30 15:17:51;;;;;;;11.20;6.77;;;;;;;-143.21;46.33;74901.13;4943700;23;20236;-90
2024/01/30 15:20:39;;;;;;;10.53;6.43;;;;;;;-143.21;46.16;74920.97;4926684;23;20300;-92
2024/01/30 15:26:53;;;;;;;15.73;6.97;;;;;;;-143.21;45.91;74924.94;4940707;23;20242;-95
2024/01/30 15:29:50;;;;;;;12.03;6.13;;;;;;;-143.21;46.27;74944.78;4938475;23;20238;-91
2024/01/30 15:43:26;;;;;;;8.60;5.53;;;;;;;-143.21;47.92;75018.22;5019012;23;20254;-92
2024/01/30 15:46:02;;;;;;;18.17;6.37;;;;;;;-143.21;48.36;75010.28;4916149;29;20205;-92
2024/01/30 15:51:14;;;;;;;15.67;6.53;;;;;;;-143.21;48.24;75032.09;4892753;29;20234;-90
2024/01/30 15:53:41;;;;;;;10.07;6.23;;;;;;;-143.21;48.24;75030.13;4889751;29;20199;-91
2024/01/30 15:56:11;;;;;;;15.50;7.23;;;;;;;-143.21;48.37;75042.03;4912678;23;20249;-89
2024/01/30 15:58:40;;;;;;;13.17;7.10;;;;;;;-143.21;48.38;75044.03;4897532;23;20226;-89
2024/01/30 16:01:10;;;;;;;15.33;7.33;;;;;;;-143.21;49.34;75044.03;4889866;23;20230;-90
2024/01/30 16:06:22;;;;;;;13.10;7.43;;;;;;;-143.21;48.92;75051.97;4911852;23;20226;-90
2024/01/30 16:08:58;;;;;;;11.97;7.50;;;;;;;-143.21;49.59;75053.94;4904248;29;20298;-89
2024/01/30 16:11:25;;;;;;;12.57;7.37;;;;;;;-143.21;49.39;75065.84;4922308;29;20209;-89
2024/01/30 16:13:52;;;;;;;17.83;8.00;;;;;;;-143.21;49.92;75059.91;4914707;29;20199;-91
2024/01/30 16:16:25;;;;;;;14.10;7.33;;;;;;;-143.21;49.44;75055.94;4920407;23;20230;-89
2024/01/30 16:18:52;;;;;;;11.90;6.73;;;;;;;-143.21;49.27;75057.91;4918166;29;20595;-89
2024/01/30 16:21:29;;;;;;;14.17;7.63;;;;;;;-143.21;49.26;75079.75;4918376;29;20234;-90
2024/01/30 16:24:05;;;;;;;15.40;8.10;;;;;;;-143.21;50.18;75089.66;4903687;29;20199;-90
2024/01/30 16:26:42;;;;;;;;;;;;;;;;;;;;;
2024/01/30 16:29:19;;;;;;;18.80;9.07;;;;;;;-143.21;50.09;75097.59;5045666;23;20326;-89
2024/01/30 16:32:12;;;;;;;14.17;7.90;;;;;;;-143.21;49.86;75111.50;4938789;23;20295;-90
2024/01/30 16:34:44;;;;;;;16.57;7.77;;;;;;;-143.21;50.21;75105.53;4917964;23;20240;-90
2024/01/30 16:37:12;;;;;;;10.40;6.83;;;;;;;-143.21;50.71;75119.44;4911254;29;20667;-89
2024/01/30 16:39:43;;;;;;;13.47;7.77;;;;;;;-143.21;50.86;75119.44;4925713;23;20249;-91
2024/01/30 16:42:19;;;;;;;;;;;;;;;;;;;;;
2024/01/30 16:44:47;;;;;;;17.17;8.03;;;;;;;-143.21;50.52;75121.44;4916586;29;20202;-90
2024/01/30 16:47:14;;;;;;;16.70;7.90;;;;;;;-143.21;50.98;75141.28;4923401;23;20193;-90
2024/01/30 16:49:54;;;;;;;;;;;;;;;;;;;;;
2024/01/30 16:55:21;;;;;;;13.07;7.80;;;;;;;-143.21;51.57;75171.03;4914064;29;20217;-91
2024/01/30 16:57:50;;;;;;;13.77;7.93;;;;;;;-143.21;51.74;75171.03;4918857;29;20263;-91
2024/01/30 17:00:18;;;;;;;14.67;7.43;;;;;;;-143.21;52.30;75173.03;5023890;23;20201;-90
2024/01/30 17:03:09;;;;;;;17.37;7.77;;;;;;;-143.21;51.93;75171.03;4920644;23;20344;-89
2024/01/30 17:05:36;;;;;;;12.43;7.87;;;;;;;-143.21;51.83;75171.03;4906307;29;20457;-92
2024/01/30 17:08:21;;;;;;;14.90;8.40;;;;;;;-143.21;52.22;75186.91;4931704;23;20672;-90
2024/01/30 17:10:48;;;;;;;11.47;7.63;;;;;;;-143.21;51.59;75180.97;4925633;23;20233;-90
2024/01/30 17:13:17;;;;;;;12.63;7.50;;;;;;;-143.21;51.46;75182.94;4923151;29;20206;-88
2024/01/30 17:16:10;;;;;;;14.03;7.73;;;;;;;-143.21;51.75;75188.91;4923834;29;20689;-91
2024/01/30 17:18:37;;;;;;;17.17;8.90;;;;;;;-143.21;52.43;75192.88;4917654;29;20214;-91
2024/01/30 17:21:45;;;;;;;14.77;8.40;;;;;;;-143.21;52.44;75190.88;4925345;23;20245;-89
2024/01/30 17:30:25;;;;;;;15.17;7.60;;;;;;;-143.21;51.65;75190.88;4891530;23;20243;-90
2024/01/30 17:32:55;;;;;;;18.43;8.60;;;;;;;-143.21;52.20;75198.81;4887790;29;20207;-90
2024/01/30 17:35:27;;;;;;;14.17;7.60;;;;;;;-143.21;52.58;75196.84;4902371;29;20230;-89
2024/01/30 17:37:54;;;;;;;13.50;7.70;;;;;;;-143.21;52.49;75198.81;4899083;29;20211;-91
2024/01/30 17:40:22;;;;;;;15.77;7.67;;;;;;;-143.21;52.83;75204.78;4900687;29;20218;-88
2024/01/30 17:42:49;;;;;;;14.73;7.90;;;;;;;-143.21;52.71;75198.81;4904512;29;20226;-88